sensor_id;sensor_type;location;lat;lon;timestamp;temperature;humidity
30037;DHT22;36325;51.512;-0.382;2022-11-18T00:01:20;9.30;99.90
30037;DHT22;36325;51.512;-0.382;2022-11-18T00:03:48;9.30;99.90
30037;DHT22;36325;51.512;-0.382;2022-11-18T00:06:18;9.20;99.90
30037;DHT22;36325;51.512;-0.382;2022-11-18T00:08:46;9.30;99.90
30037;DHT22;36325;51.512;-0.382;2022-11-18T00:11:17;9.30;99.90
30037;DHT22;36325;51.512;-0.382;2022-11-18T00:14:14;9.30;99.90
30037;DHT22;36325;51.512;-0.382;2022-11-18T00:16:46;9.30;99.90
30037;DHT22;36325;51.512;-0.382;2022-11-18T00:19:14;9.30;99.90
30037;DHT22;36325;51.512;-0.382;2022-11-18T00:21:41;9.20;99.90
30037;DHT22;36325;51.512;-0.382;2022-11-18T00:24:09;9.30;99.90
30037;DHT22;36325;51.512;-0.382;2022-11-18T00:26:36;9.30;99.90
30037;DHT22;36325;51.512;-0.382;2022-11-18T00:29:04;9.30;99.90
30037;DHT22;36325;51.512;-0.382;2022-11-18T00:31:31;9.30;99.90
30037;DHT22;36325;51.512;-0.382;2022-11-18T00:33:58;9.40;99.90
30037;DHT22;36325;51.512;-0.382;2022-11-18T00:36:26;9.40;99.90
30037;DHT22;36325;51.512;-0.382;2022-11-18T00:38:54;9.40;99.90
30037;DHT22;36325;51.512;-0.382;2022-11-18T00:41:21;9.40;99.90
30037;DHT22;36325;51.512;-0.382;2022-11-18T00:43:48;9.50;99.90
30037;DHT22;36325;51.512;-0.382;2022-11-18T00:46:16;9.40;99.90
30037;DHT22;36325;51.512;-0.382;2022-11-18T00:48:43;9.50;99.90
30037;DHT22;36325;51.512;-0.382;2022-11-18T00:51:16;9.50;99.90
30037;DHT22;36325;51.512;-0.382;2022-11-18T00:53:44;9.50;99.90
30037;DHT22;36325;51.512;-0.382;2022-11-18T00:56:11;9.50;99.90
30037;DHT22;36325;51.512;-0.382;2022-11-18T00:58:38;9.50;99.90
30037;DHT22;36325;51.512;-0.382;2022-11-18T01:01:05;9.50;99.90
30037;DHT22;36325;51.512;-0.382;2022-11-18T01:03:33;9.50;99.90
30037;DHT22;36325;51.512;-0.382;2022-11-18T01:06:00;9.50;99.90
30037;DHT22;36325;51.512;-0.382;2022-11-18T01:08:27;9.50;99.90
30037;DHT22;36325;51.512;-0.382;2022-11-18T01:10:54;9.50;99.90
30037;DHT22;36325;51.512;-0.382;2022-11-18T01:13:42;9.50;99.90
30037;DHT22;36325;51.512;-0.382;2022-11-18T01:16:09;9.50;99.90
30037;DHT22;36325;51.512;-0.382;2022-11-18T01:18:36;9.50;99.90
30037;DHT22;36325;51.512;-0.382;2022-11-18T01:21:03;9.50;99.90
30037;DHT22;36325;51.512;-0.382;2022-11-18T01:23:30;9.50;99.90
30037;DHT22;36325;51.512;-0.382;2022-11-18T01:26:06;9.50;99.90
30037;DHT22;36325;51.512;-0.382;2022-11-18T01:28:35;9.50;99.90
30037;DHT22;36325;51.512;-0.382;2022-11-18T01:31:08;9.50;99.90
30037;DHT22;36325;51.512;-0.382;2022-11-18T01:33:36;9.50;99.90
30037;DHT22;36325;51.512;-0.382;2022-11-18T01:36:04;9.50;99.90
30037;DHT22;36325;51.512;-0.382;2022-11-18T01:38:40;9.50;99.90
30037;DHT22;36325;51.512;-0.382;2022-11-18T01:41:07;9.50;99.90
30037;DHT22;36325;51.512;-0.382;2022-11-18T01:43:52;9.50;99.90
30037;DHT22;36325;51.512;-0.382;2022-11-18T01:46:21;9.50;99.90
30037;DHT22;36325;51.512;-0.382;2022-11-18T01:49:12;9.50;99.90
30037;DHT22;36325;51.512;-0.382;2022-11-18T01:51:51;9.50;99.90
30037;DHT22;36325;51.512;-0.382;2022-11-18T01:54:25;9.40;99.90
30037;DHT22;36325;51.512;-0.382;2022-11-18T01:56:58;9.40;99.90
30037;DHT22;36325;51.512;-0.382;2022-11-18T01:59:30;9.40;99.90
30037;DHT22;36325;51.512;-0.382;2022-11-18T02:02:00;9.40;99.90
30037;DHT22;36325;51.512;-0.382;2022-11-18T02:04:29;9.40;99.90
30037;DHT22;36325;51.512;-0.382;2022-11-18T02:06:56;9.40;99.90
30037;DHT22;36325;51.512;-0.382;2022-11-18T02:09:24;9.40;99.90
30037;DHT22;36325;51.512;-0.382;2022-11-18T02:11:51;9.40;99.90
30037;DHT22;36325;51.512;-0.382;2022-11-18T02:14:26;9.30;99.90
30037;DHT22;36325;51.512;-0.382;2022-11-18T02:17:09;9.30;99.90
30037;DHT22;36325;51.512;-0.382;2022-11-18T02:30:56;9.20;99.90
30037;DHT22;36325;51.512;-0.382;2022-11-18T02:33:49;9.20;99.90
30037;DHT22;36325;51.512;-0.382;2022-11-18T02:36:27;9.20;99.90
30037;DHT22;36325;51.512;-0.382;2022-11-18T02:39:03;9.10;99.90
30037;DHT22;36325;51.512;-0.382;2022-11-18T02:41:32;9.10;99.90
30037;DHT22;36325;51.512;-0.382;2022-11-18T02:44:16;9.10;99.90
30037;DHT22;36325;51.512;-0.382;2022-11-18T02:46:48;9.10;99.90
30037;DHT22;36325;51.512;-0.382;2022-11-18T02:49:45;9.10;99.90
30037;DHT22;36325;51.512;-0.382;2022-11-18T02:52:14;9.10;99.90
30037;DHT22;36325;51.512;-0.382;2022-11-18T02:54:44;9.00;99.90
30037;DHT22;36325;51.512;-0.382;2022-11-18T02:57:14;9.00;99.90
30037;DHT22;36325;51.512;-0.382;2022-11-18T02:59:42;9.00;99.90
30037;DHT22;36325;51.512;-0.382;2022-11-18T03:02:15;9.00;99.90
30037;DHT22;36325;51.512;-0.382;2022-11-18T03:04:45;8.90;99.90
30037;DHT22;36325;51.512;-0.382;2022-11-18T03:09:46;8.90;99.90
30037;DHT22;36325;51.512;-0.382;2022-11-18T03:12:20;8.90;99.90
30037;DHT22;36325;51.512;-0.382;2022-11-18T03:20:14;8.90;99.90
30037;DHT22;36325;51.512;-0.382;2022-11-18T03:22:53;8.90;99.90
30037;DHT22;36325;51.512;-0.382;2022-11-18T03:28:34;8.90;99.90
30037;DHT22;36325;51.512;-0.382;2022-11-18T03:31:15;8.90;99.90
30037;DHT22;36325;51.512;-0.382;2022-11-18T03:33:49;8.90;99.90
30037;DHT22;36325;51.512;-0.382;2022-11-18T03:36:21;9.00;99.90
30037;DHT22;36325;51.512;-0.382;2022-11-18T03:38:51;9.00;99.90
30037;DHT22;36325;51.512;-0.382;2022-11-18T03:41:20;8.90;99.90
30037;DHT22;36325;51.512;-0.382;2022-11-18T03:44:00;8.90;99.90
30037;DHT22;36325;51.512;-0.382;2022-11-18T03:46:52;8.80;99.90
30037;DHT22;36325;51.512;-0.382;2022-11-18T03:49:38;8.80;99.90
30037;DHT22;36325;51.512;-0.382;2022-11-18T03:52:22;8.70;99.90
30037;DHT22;36325;51.512;-0.382;2022-11-18T03:54:52;8.70;99.90
30037;DHT22;36325;51.512;-0.382;2022-11-18T03:57:24;8.70;99.90
30037;DHT22;36325;51.512;-0.382;2022-11-18T04:00:02;8.70;99.90
30037;DHT22;36325;51.512;-0.382;2022-11-18T04:02:32;8.60;99.90
30037;DHT22;36325;51.512;-0.382;2022-11-18T04:05:00;8.60;99.90
30037;DHT22;36325;51.512;-0.382;2022-11-18T04:10:20;8.60;99.90
30037;DHT22;36325;51.512;-0.382;2022-11-18T04:13:03;8.60;99.90
30037;DHT22;36325;51.512;-0.382;2022-11-18T04:15:36;8.50;99.90
30037;DHT22;36325;51.512;-0.382;2022-11-18T04:18:04;8.50;99.90
30037;DHT22;36325;51.512;-0.382;2022-11-18T04:20:32;8.50;99.90
30037;DHT22;36325;51.512;-0.382;2022-11-18T04:23:00;8.50;99.90
30037;DHT22;36325;51.512;-0.382;2022-11-18T04:25:27;8.50;99.90
30037;DHT22;36325;51.512;-0.382;2022-11-18T04:27:54;8.60;99.90
30037;DHT22;36325;51.512;-0.382;2022-11-18T04:30:22;8.60;99.90
30037;DHT22;36325;51.512;-0.382;2022-11-18T04:32:49;8.60;99.90
30037;DHT22;36325;51.512;-0.382;2022-11-18T04:35:16;8.70;99.90
30037;DHT22;36325;51.512;-0.382;2022-11-18T04:37:43;8.70;99.90
30037;DHT22;36325;51.512;-0.382;2022-11-18T04:40:11;8.70;99.90
30037;DHT22;36325;51.512;-0.382;2022-11-18T04:42:38;8.80;99.90
30037;DHT22;36325;51.512;-0.382;2022-11-18T04:45:06;8.80;99.90
30037;DHT22;36325;51.512;-0.382;2022-11-18T04:47:33;8.80;99.90
30037;DHT22;36325;51.512;-0.382;2022-11-18T04:50:00;8.80;99.90
30037;DHT22;36325;51.512;-0.382;2022-11-18T04:52:27;8.80;99.90
30037;DHT22;36325;51.512;-0.382;2022-11-18T04:54:54;8.90;99.90
30037;DHT22;36325;51.512;-0.382;2022-11-18T04:57:22;8.90;99.90
30037;DHT22;36325;51.512;-0.382;2022-11-18T04:59:49;8.90;99.90
30037;DHT22;36325;51.512;-0.382;2022-11-18T05:02:16;8.90;99.90
30037;DHT22;36325;51.512;-0.382;2022-11-18T05:04:43;8.90;99.90
30037;DHT22;36325;51.512;-0.382;2022-11-18T05:07:14;8.90;99.90
30037;DHT22;36325;51.512;-0.382;2022-11-18T05:09:41;8.90;99.90
30037;DHT22;36325;51.512;-0.382;2022-11-18T05:12:13;8.90;99.90
30037;DHT22;36325;51.512;-0.382;2022-11-18T05:14:59;8.90;99.90
30037;DHT22;36325;51.512;-0.382;2022-11-18T05:17:26;8.90;99.90
30037;DHT22;36325;51.512;-0.382;2022-11-18T05:19:53;8.90;99.90
30037;DHT22;36325;51.512;-0.382;2022-11-18T05:22:21;8.90;99.90
30037;DHT22;36325;51.512;-0.382;2022-11-18T05:24:48;9.00;99.90
30037;DHT22;36325;51.512;-0.382;2022-11-18T05:27:15;9.00;99.90
30037;DHT22;36325;51.512;-0.382;2022-11-18T05:29:43;9.00;99.90
30037;DHT22;36325;51.512;-0.382;2022-11-18T05:32:10;9.00;99.90
30037;DHT22;36325;51.512;-0.382;2022-11-18T05:34:41;9.00;99.90
30037;DHT22;36325;51.512;-0.382;2022-11-18T05:37:09;9.00;99.90
30037;DHT22;36325;51.512;-0.382;2022-11-18T05:39:36;8.90;99.90
30037;DHT22;36325;51.512;-0.382;2022-11-18T05:42:04;8.90;99.90
30037;DHT22;36325;51.512;-0.382;2022-11-18T05:44:50;8.90;99.90
30037;DHT22;36325;51.512;-0.382;2022-11-18T05:47:23;9.00;99.90
30037;DHT22;36325;51.512;-0.382;2022-11-18T05:49:51;9.00;99.90
30037;DHT22;36325;51.512;-0.382;2022-11-18T05:52:18;8.90;99.90
30037;DHT22;36325;51.512;-0.382;2022-11-18T05:54:48;8.90;99.90
30037;DHT22;36325;51.512;-0.382;2022-11-18T05:57:17;8.90;99.90
30037;DHT22;36325;51.512;-0.382;2022-11-18T05:59:44;8.90;99.90
30037;DHT22;36325;51.512;-0.382;2022-11-18T06:02:15;8.80;99.90
30037;DHT22;36325;51.512;-0.382;2022-11-18T06:04:50;8.80;99.90
30037;DHT22;36325;51.512;-0.382;2022-11-18T06:07:25;8.70;99.90
30037;DHT22;36325;51.512;-0.382;2022-11-18T06:09:56;8.70;99.90
30037;DHT22;36325;51.512;-0.382;2022-11-18T06:12:37;8.60;99.90
30037;DHT22;36325;51.512;-0.382;2022-11-18T06:15:10;8.60;99.90
30037;DHT22;36325;51.512;-0.382;2022-11-18T06:17:44;8.50;99.90
30037;DHT22;36325;51.512;-0.382;2022-11-18T06:20:12;8.50;99.90
30037;DHT22;36325;51.512;-0.382;2022-11-18T06:22:39;8.40;99.90
30037;DHT22;36325;51.512;-0.382;2022-11-18T06:25:11;8.40;99.90
30037;DHT22;36325;51.512;-0.382;2022-11-18T06:27:39;8.30;99.90
30037;DHT22;36325;51.512;-0.382;2022-11-18T06:30:07;8.30;99.90
30037;DHT22;36325;51.512;-0.382;2022-11-18T06:32:34;8.30;99.90
30037;DHT22;36325;51.512;-0.382;2022-11-18T06:35:01;8.20;99.90
30037;DHT22;36325;51.512;-0.382;2022-11-18T06:37:28;8.20;99.90
30037;DHT22;36325;51.512;-0.382;2022-11-18T06:39:56;8.20;99.90
30037;DHT22;36325;51.512;-0.382;2022-11-18T06:42:23;8.10;99.90
30037;DHT22;36325;51.512;-0.382;2022-11-18T06:45:09;8.10;99.90
30037;DHT22;36325;51.512;-0.382;2022-11-18T06:47:36;8.10;99.90
30037;DHT22;36325;51.512;-0.382;2022-11-18T06:50:03;8.10;99.90
30037;DHT22;36325;51.512;-0.382;2022-11-18T06:52:31;8.10;99.90
30037;DHT22;36325;51.512;-0.382;2022-11-18T06:54:59;8.00;99.90
30037;DHT22;36325;51.512;-0.382;2022-11-18T06:57:26;8.00;99.90
30037;DHT22;36325;51.512;-0.382;2022-11-18T06:59:53;8.00;99.90
30037;DHT22;36325;51.512;-0.382;2022-11-18T07:02:26;8.00;99.90
30037;DHT22;36325;51.512;-0.382;2022-11-18T07:04:53;8.00;99.90
30037;DHT22;36325;51.512;-0.382;2022-11-18T07:07:20;7.90;99.90
30037;DHT22;36325;51.512;-0.382;2022-11-18T07:09:47;7.90;99.90
30037;DHT22;36325;51.512;-0.382;2022-11-18T07:12:15;8.60;99.90
30037;DHT22;36325;51.512;-0.382;2022-11-18T07:14:42;7.90;99.90
30037;DHT22;36325;51.512;-0.382;2022-11-18T07:17:09;7.90;99.90
30037;DHT22;36325;51.512;-0.382;2022-11-18T07:19:37;7.90;99.90
30037;DHT22;36325;51.512;-0.382;2022-11-18T07:22:04;7.90;99.90
30037;DHT22;36325;51.512;-0.382;2022-11-18T07:24:33;7.90;99.90
30037;DHT22;36325;51.512;-0.382;2022-11-18T07:27:01;7.90;99.90
30037;DHT22;36325;51.512;-0.382;2022-11-18T07:29:28;7.90;99.90
30037;DHT22;36325;51.512;-0.382;2022-11-18T07:31:55;7.90;99.90
30037;DHT22;36325;51.512;-0.382;2022-11-18T07:34:23;7.90;99.90
30037;DHT22;36325;51.512;-0.382;2022-11-18T07:36:50;7.90;99.90
30037;DHT22;36325;51.512;-0.382;2022-11-18T07:39:17;7.90;99.90
30037;DHT22;36325;51.512;-0.382;2022-11-18T07:41:44;7.90;99.90
30037;DHT22;36325;51.512;-0.382;2022-11-18T07:44:12;7.90;99.90
30037;DHT22;36325;51.512;-0.382;2022-11-18T07:46:40;7.90;99.90
30037;DHT22;36325;51.512;-0.382;2022-11-18T07:49:08;7.90;99.90
30037;DHT22;36325;51.512;-0.382;2022-11-18T07:51:37;7.90;99.90
30037;DHT22;36325;51.512;-0.382;2022-11-18T07:54:07;7.90;99.90
30037;DHT22;36325;51.512;-0.382;2022-11-18T07:56:35;7.90;99.90
30037;DHT22;36325;51.512;-0.382;2022-11-18T07:59:02;7.90;99.90
30037;DHT22;36325;51.512;-0.382;2022-11-18T08:01:30;8.00;99.90
30037;DHT22;36325;51.512;-0.382;2022-11-18T08:04:04;8.00;99.90
30037;DHT22;36325;51.512;-0.382;2022-11-18T08:06:32;8.00;99.90
30037;DHT22;36325;51.512;-0.382;2022-11-18T08:09:01;8.10;99.90
30037;DHT22;36325;51.512;-0.382;2022-11-18T08:11:29;8.10;99.90
30037;DHT22;36325;51.512;-0.382;2022-11-18T08:13:56;8.20;99.90
30037;DHT22;36325;51.512;-0.382;2022-11-18T08:16:24;8.40;99.90
30037;DHT22;36325;51.512;-0.382;2022-11-18T08:18:52;8.50;99.90
30037;DHT22;36325;51.512;-0.382;2022-11-18T08:21:21;8.50;99.90
30037;DHT22;36325;51.512;-0.382;2022-11-18T08:23:51;8.60;99.90
30037;DHT22;36325;51.512;-0.382;2022-11-18T08:26:21;8.10;99.90
30037;DHT22;36325;51.512;-0.382;2022-11-18T08:28:49;8.70;99.90
30037;DHT22;36325;51.512;-0.382;2022-11-18T08:31:22;8.80;99.90
30037;DHT22;36325;51.512;-0.382;2022-11-18T08:34:00;8.90;99.90
30037;DHT22;36325;51.512;-0.382;2022-11-18T08:36:31;8.90;99.90
30037;DHT22;36325;51.512;-0.382;2022-11-18T08:39:04;8.90;99.90
30037;DHT22;36325;51.512;-0.382;2022-11-18T08:44:04;9.20;99.90
30037;DHT22;36325;51.512;-0.382;2022-11-18T08:46:33;9.50;99.90
30037;DHT22;36325;51.512;-0.382;2022-11-18T08:49:01;9.60;99.90
30037;DHT22;36325;51.512;-0.382;2022-11-18T08:51:28;9.80;99.90
30037;DHT22;36325;51.512;-0.382;2022-11-18T08:54:00;9.90;99.90
30037;DHT22;36325;51.512;-0.382;2022-11-18T08:56:30;10.10;99.90
30037;DHT22;36325;51.512;-0.382;2022-11-18T08:58:58;10.40;99.90
30037;DHT22;36325;51.512;-0.382;2022-11-18T09:01:28;10.60;99.90
30037;DHT22;36325;51.512;-0.382;2022-11-18T09:03:55;10.80;99.90
30037;DHT22;36325;51.512;-0.382;2022-11-18T09:06:23;11.00;99.90
30037;DHT22;36325;51.512;-0.382;2022-11-18T09:08:55;11.20;99.90
30037;DHT22;36325;51.512;-0.382;2022-11-18T09:11:33;11.30;99.90
30037;DHT22;36325;51.512;-0.382;2022-11-18T09:14:02;11.40;99.90
30037;DHT22;36325;51.512;-0.382;2022-11-18T09:16:51;11.40;99.90
30037;DHT22;36325;51.512;-0.382;2022-11-18T09:19:22;11.20;99.90
30037;DHT22;36325;51.512;-0.382;2022-11-18T09:22:15;11.20;99.90
30037;DHT22;36325;51.512;-0.382;2022-11-18T09:24:48;11.50;99.90
30037;DHT22;36325;51.512;-0.382;2022-11-18T09:27:15;11.70;99.90
30037;DHT22;36325;51.512;-0.382;2022-11-18T09:29:44;11.90;99.90
30037;DHT22;36325;51.512;-0.382;2022-11-18T09:32:11;12.10;99.90
30037;DHT22;36325;51.512;-0.382;2022-11-18T09:34:38;12.20;99.90
30037;DHT22;36325;51.512;-0.382;2022-11-18T09:37:05;12.40;99.90
30037;DHT22;36325;51.512;-0.382;2022-11-18T09:39:34;12.60;99.90
30037;DHT22;36325;51.512;-0.382;2022-11-18T09:47:28;12.20;99.90
30037;DHT22;36325;51.512;-0.382;2022-11-18T09:49:59;12.10;99.90
30037;DHT22;36325;51.512;-0.382;2022-11-18T09:52:55;12.00;99.90
30037;DHT22;36325;51.512;-0.382;2022-11-18T09:55:27;12.20;99.90
30037;DHT22;36325;51.512;-0.382;2022-11-18T09:57:56;12.70;99.90
30037;DHT22;36325;51.512;-0.382;2022-11-18T10:00:30;13.10;99.90
30037;DHT22;36325;51.512;-0.382;2022-11-18T10:03:01;13.30;99.90
30037;DHT22;36325;51.512;-0.382;2022-11-18T10:08:17;13.60;99.90
30037;DHT22;36325;51.512;-0.382;2022-11-18T10:21:47;14.30;99.90
30037;DHT22;36325;51.512;-0.382;2022-11-18T10:24:24;14.50;99.90
30037;DHT22;36325;51.512;-0.382;2022-11-18T10:26:57;14.70;99.90
30037;DHT22;36325;51.512;-0.382;2022-11-18T10:29:26;15.00;99.90
30037;DHT22;36325;51.512;-0.382;2022-11-18T10:34:55;15.80;99.90
30037;DHT22;36325;51.512;-0.382;2022-11-18T10:37:28;16.20;99.90
30037;DHT22;36325;51.512;-0.382;2022-11-18T10:40:27;16.40;99.90
30037;DHT22;36325;51.512;-0.382;2022-11-18T10:42:55;16.80;99.90
30037;DHT22;36325;51.512;-0.382;2022-11-18T10:45:31;16.80;99.90
30037;DHT22;36325;51.512;-0.382;2022-11-18T10:50:49;17.10;99.90
30037;DHT22;36325;51.512;-0.382;2022-11-18T10:53:35;17.20;99.90
30037;DHT22;36325;51.512;-0.382;2022-11-18T10:56:12;17.40;99.90
30037;DHT22;36325;51.512;-0.382;2022-11-18T10:58:48;17.60;99.90
30037;DHT22;36325;51.512;-0.382;2022-11-18T11:01:24;17.90;99.90
30037;DHT22;36325;51.512;-0.382;2022-11-18T11:03:59;18.30;99.90
30037;DHT22;36325;51.512;-0.382;2022-11-18T11:06:32;18.60;99.90
30037;DHT22;36325;51.512;-0.382;2022-11-18T11:09:06;18.90;99.90
30037;DHT22;36325;51.512;-0.382;2022-11-18T11:11:42;19.00;99.90
30037;DHT22;36325;51.512;-0.382;2022-11-18T11:14:36;19.20;99.90
30037;DHT22;36325;51.512;-0.382;2022-11-18T11:17:34;19.20;99.90
30037;DHT22;36325;51.512;-0.382;2022-11-18T11:20:18;19.70;99.90
30037;DHT22;36325;51.512;-0.382;2022-11-18T11:22:46;20.30;99.90
30037;DHT22;36325;51.512;-0.382;2022-11-18T11:25:43;20.30;99.90
30037;DHT22;36325;51.512;-0.382;2022-11-18T11:34:09;20.90;99.90
30037;DHT22;36325;51.512;-0.382;2022-11-18T11:36:41;21.10;99.90
30037;DHT22;36325;51.512;-0.382;2022-11-18T12:02:02;21.70;99.90
30037;DHT22;36325;51.512;-0.382;2022-11-18T12:04:51;22.10;99.90
30037;DHT22;36325;51.512;-0.382;2022-11-18T12:07:32;22.00;99.90
30037;DHT22;36325;51.512;-0.382;2022-11-18T12:19:16;22.60;99.90
30037;DHT22;36325;51.512;-0.382;2022-11-18T12:32:36;23.50;99.90
30037;DHT22;36325;51.512;-0.382;2022-11-18T12:40:32;22.60;99.90
30037;DHT22;36325;51.512;-0.382;2022-11-18T12:43:00;22.70;99.90
30037;DHT22;36325;51.512;-0.382;2022-11-18T12:45:49;20.20;99.90
30037;DHT22;36325;51.512;-0.382;2022-11-18T12:48:36;20.10;99.90
30037;DHT22;36325;51.512;-0.382;2022-11-18T12:51:39;19.40;99.90
30037;DHT22;36325;51.512;-0.382;2022-11-18T12:54:29;19.40;99.90
30037;DHT22;36325;51.512;-0.382;2022-11-18T12:59:35;18.20;99.90
30037;DHT22;36325;51.512;-0.382;2022-11-18T13:04:38;18.20;99.90
30037;DHT22;36325;51.512;-0.382;2022-11-18T13:07:19;17.80;99.90
30037;DHT22;36325;51.512;-0.382;2022-11-18T13:10:24;17.30;99.90
30037;DHT22;36325;51.512;-0.382;2022-11-18T13:12:53;16.50;99.90
30037;DHT22;36325;51.512;-0.382;2022-11-18T13:15:20;15.90;99.90
30037;DHT22;36325;51.512;-0.382;2022-11-18T13:18:15;15.50;99.90
30037;DHT22;36325;51.512;-0.382;2022-11-18T13:20:54;15.50;99.90
30037;DHT22;36325;51.512;-0.382;2022-11-18T13:23:28;15.70;99.90
30037;DHT22;36325;51.512;-0.382;2022-11-18T13:26:29;15.50;99.90
30037;DHT22;36325;51.512;-0.382;2022-11-18T13:32:08;15.50;99.90
30037;DHT22;36325;51.512;-0.382;2022-11-18T13:34:50;15.30;99.90
30037;DHT22;36325;51.512;-0.382;2022-11-18T13:37:23;15.20;99.90
30037;DHT22;36325;51.512;-0.382;2022-11-18T13:39:51;14.90;99.90
30037;DHT22;36325;51.512;-0.382;2022-11-18T13:42:24;14.60;99.90
30037;DHT22;36325;51.512;-0.382;2022-11-18T13:44:57;14.30;99.90
30037;DHT22;36325;51.512;-0.382;2022-11-18T13:48:08;14.10;99.90
30037;DHT22;36325;51.512;-0.382;2022-11-18T13:50:40;13.90;99.90
30037;DHT22;36325;51.512;-0.382;2022-11-18T13:53:31;13.80;99.90
30037;DHT22;36325;51.512;-0.382;2022-11-18T13:58:59;13.60;99.90
30037;DHT22;36325;51.512;-0.382;2022-11-18T14:01:43;13.50;99.90
30037;DHT22;36325;51.512;-0.382;2022-11-18T14:04:20;13.40;99.90
30037;DHT22;36325;51.512;-0.382;2022-11-18T14:06:48;13.40;99.90
30037;DHT22;36325;51.512;-0.382;2022-11-18T14:09:25;13.40;99.90
30037;DHT22;36325;51.512;-0.382;2022-11-18T14:11:59;13.50;99.90
30037;DHT22;36325;51.512;-0.382;2022-11-18T14:14:35;13.50;99.90
30037;DHT22;36325;51.512;-0.382;2022-11-18T14:17:22;13.60;99.90
30037;DHT22;36325;51.512;-0.382;2022-11-18T14:19:54;13.60;99.90
30037;DHT22;36325;51.512;-0.382;2022-11-18T14:22:24;13.70;99.90
30037;DHT22;36325;51.512;-0.382;2022-11-18T14:25:02;13.80;99.90
30037;DHT22;36325;51.512;-0.382;2022-11-18T14:30:38;14.00;99.90
30037;DHT22;36325;51.512;-0.382;2022-11-18T14:33:17;12.90;99.90
30037;DHT22;36325;51.512;-0.382;2022-11-18T14:35:50;15.10;99.90
30037;DHT22;36325;51.512;-0.382;2022-11-18T14:41:26;15.20;99.90
30037;DHT22;36325;51.512;-0.382;2022-11-18T14:44:12;14.90;99.90
30037;DHT22;36325;51.512;-0.382;2022-11-18T14:46:42;14.70;99.90
30037;DHT22;36325;51.512;-0.382;2022-11-18T14:49:13;14.60;99.90
30037;DHT22;36325;51.512;-0.382;2022-11-18T14:51:44;14.40;99.90
30037;DHT22;36325;51.512;-0.382;2022-11-18T14:54:18;14.10;99.90
30037;DHT22;36325;51.512;-0.382;2022-11-18T14:56:59;14.00;99.90
30037;DHT22;36325;51.512;-0.382;2022-11-18T14:59:26;13.70;99.90
30037;DHT22;36325;51.512;-0.382;2022-11-18T15:01:54;13.50;99.90
30037;DHT22;36325;51.512;-0.382;2022-11-18T15:04:22;13.40;99.90
30037;DHT22;36325;51.512;-0.382;2022-11-18T15:06:51;13.30;99.90
30037;DHT22;36325;51.512;-0.382;2022-11-18T15:09:18;13.10;99.90
30037;DHT22;36325;51.512;-0.382;2022-11-18T15:11:45;13.00;99.90
30037;DHT22;36325;51.512;-0.382;2022-11-18T15:14:12;12.90;99.90
30037;DHT22;36325;51.512;-0.382;2022-11-18T15:16:39;12.90;99.90
30037;DHT22;36325;51.512;-0.382;2022-11-18T15:19:13;12.90;99.90
30037;DHT22;36325;51.512;-0.382;2022-11-18T15:21:41;12.80;99.90
30037;DHT22;36325;51.512;-0.382;2022-11-18T15:24:09;12.80;99.90
30037;DHT22;36325;51.512;-0.382;2022-11-18T15:26:43;12.70;99.90
30037;DHT22;36325;51.512;-0.382;2022-11-18T15:31:46;12.60;99.90
30037;DHT22;36325;51.512;-0.382;2022-11-18T15:34:14;12.50;99.90
30037;DHT22;36325;51.512;-0.382;2022-11-18T15:36:42;12.50;99.90
30037;DHT22;36325;51.512;-0.382;2022-11-18T15:39:10;12.40;99.90
30037;DHT22;36325;51.512;-0.382;2022-11-18T15:41:40;12.40;99.90
30037;DHT22;36325;51.512;-0.382;2022-11-18T15:44:08;12.40;99.90
30037;DHT22;36325;51.512;-0.382;2022-11-18T15:46:36;12.30;99.90
30037;DHT22;36325;51.512;-0.382;2022-11-18T15:49:03;12.30;99.90
30037;DHT22;36325;51.512;-0.382;2022-11-18T15:51:33;12.30;99.90
30037;DHT22;36325;51.512;-0.382;2022-11-18T15:54:00;12.30;99.90
30037;DHT22;36325;51.512;-0.382;2022-11-18T15:56:28;12.30;99.90
30037;DHT22;36325;51.512;-0.382;2022-11-18T15:59:12;12.30;99.90
30037;DHT22;36325;51.512;-0.382;2022-11-18T16:01:44;12.20;99.90
30037;DHT22;36325;51.512;-0.382;2022-11-18T16:04:14;12.20;99.90
30037;DHT22;36325;51.512;-0.382;2022-11-18T16:06:42;12.20;99.90
30037;DHT22;36325;51.512;-0.382;2022-11-18T16:09:10;12.10;99.90
30037;DHT22;36325;51.512;-0.382;2022-11-18T16:11:38;12.10;99.90
30037;DHT22;36325;51.512;-0.382;2022-11-18T16:14:24;12.10;99.90
30037;DHT22;36325;51.512;-0.382;2022-11-18T16:16:53;12.00;99.90
30037;DHT22;36325;51.512;-0.382;2022-11-18T16:19:23;12.00;99.90
30037;DHT22;36325;51.512;-0.382;2022-11-18T16:21:54;12.00;99.90
30037;DHT22;36325;51.512;-0.382;2022-11-18T16:24:24;11.90;99.90
30037;DHT22;36325;51.512;-0.382;2022-11-18T16:26:52;11.90;99.90
30037;DHT22;36325;51.512;-0.382;2022-11-18T16:29:19;11.90;99.90
30037;DHT22;36325;51.512;-0.382;2022-11-18T16:31:49;11.80;99.90
30037;DHT22;36325;51.512;-0.382;2022-11-18T16:34:23;11.80;99.90
30037;DHT22;36325;51.512;-0.382;2022-11-18T16:36:53;11.80;99.90
30037;DHT22;36325;51.512;-0.382;2022-11-18T16:39:24;11.80;99.90
30037;DHT22;36325;51.512;-0.382;2022-11-18T16:41:57;11.70;99.90
30037;DHT22;36325;51.512;-0.382;2022-11-18T16:44:32;11.70;99.90
30037;DHT22;36325;51.512;-0.382;2022-11-18T16:47:00;11.70;99.90
30037;DHT22;36325;51.512;-0.382;2022-11-18T16:49:28;11.60;99.90
30037;DHT22;36325;51.512;-0.382;2022-11-18T16:51:56;11.70;99.90
30037;DHT22;36325;51.512;-0.382;2022-11-18T16:54:25;11.60;99.90
30037;DHT22;36325;51.512;-0.382;2022-11-18T16:56:54;11.60;99.90
30037;DHT22;36325;51.512;-0.382;2022-11-18T16:59:24;11.60;99.90
30037;DHT22;36325;51.512;-0.382;2022-11-18T17:01:52;11.60;99.90
30037;DHT22;36325;51.512;-0.382;2022-11-18T17:04:20;11.60;99.90
30037;DHT22;36325;51.512;-0.382;2022-11-18T17:06:49;11.60;99.90
30037;DHT22;36325;51.512;-0.382;2022-11-18T17:09:19;11.60;99.90
30037;DHT22;36325;51.512;-0.382;2022-11-18T17:11:47;11.60;99.90
30037;DHT22;36325;51.512;-0.382;2022-11-18T17:14:14;11.50;99.90
30037;DHT22;36325;51.512;-0.382;2022-11-18T17:16:42;11.50;99.90
30037;DHT22;36325;51.512;-0.382;2022-11-18T17:19:14;11.50;99.90
30037;DHT22;36325;51.512;-0.382;2022-11-18T17:21:42;11.50;99.90
30037;DHT22;36325;51.512;-0.382;2022-11-18T17:24:11;11.40;99.90
30037;DHT22;36325;51.512;-0.382;2022-11-18T17:26:39;11.50;99.90
30037;DHT22;36325;51.512;-0.382;2022-11-18T17:29:11;11.40;99.90
30037;DHT22;36325;51.512;-0.382;2022-11-18T17:31:39;11.40;99.90
30037;DHT22;36325;51.512;-0.382;2022-11-18T17:34:12;11.40;99.90
30037;DHT22;36325;51.512;-0.382;2022-11-18T17:36:40;11.40;99.90
30037;DHT22;36325;51.512;-0.382;2022-11-18T17:39:09;11.40;99.90
30037;DHT22;36325;51.512;-0.382;2022-11-18T17:41:37;11.40;99.90
30037;DHT22;36325;51.512;-0.382;2022-11-18T17:44:23;11.30;99.90
30037;DHT22;36325;51.512;-0.382;2022-11-18T17:46:51;11.40;99.90
30037;DHT22;36325;51.512;-0.382;2022-11-18T17:49:18;11.30;99.90
30037;DHT22;36325;51.512;-0.382;2022-11-18T17:51:47;11.30;99.90
30037;DHT22;36325;51.512;-0.382;2022-11-18T17:54:14;11.30;99.90
30037;DHT22;36325;51.512;-0.382;2022-11-18T17:56:42;11.30;99.90
30037;DHT22;36325;51.512;-0.382;2022-11-18T17:59:09;11.30;99.90
30037;DHT22;36325;51.512;-0.382;2022-11-18T18:01:37;11.20;99.90